Latest Weather Observations for Wynyard

IDT60801

Issued at 8:31 pm EDT Monday 17 December 2018 (issued every 10 minutes, with the page automatically refreshed every 10 minutes)

About weather observations | Map of weather stations | Latest weather observations for TAS | Other Formats
Station Details ID: 091107 Name: WYNYARD AIRPORT Lat: -41.00 Lon: 145.73 Height: 12.0 m
Data from the previous 72 hours. | See also: Recent months at Wynyard
Date/Time
EDT
Temp
°C
App
Temp
°C
Dew
Point
°C
Rel
Hum
%
Delta-T
°C
Wind Press
QNH
hPa
Press
MSL
hPa
Rain since
9am
mm
Dir  Spd
km/h
Gust
km/h
Spd
kts
Gust
kts
17/08:30pm 18.6 14.0 12.4 67 3.5 SW 28 39 15 21 1009.5 1009.5 0.0
17/08:00pm 19.4 13.3 12.9 66 3.7 SW 37 50 20 27 1009.4 1009.4 0.0
17/07:30pm 20.1 14.3 12.8 63 4.1 SW 35 46 19 25 1009.1 1009.1 0.0
17/07:07pm 20.5 15.3 12.7 61 4.4 SW 32 50 17 27 1008.9 1008.9 0.0
17/07:00pm 20.6 16.3 13.3 63 4.2 SW 28 39 15 21 1008.9 1008.9 0.0
17/06:30pm 20.4 16.9 13.4 64 4.0 SW 24 33 13 18 1008.8 1008.8 0.0
17/06:00pm 21.4 18.8 13.1 59 4.8 SW 19 30 10 16 1008.5 1008.5 0.0
17/05:30pm 22.8 18.6 13.6 56 5.3 SW 28 43 15 23 1008.4 1008.4 0.0
17/05:00pm 22.0 17.4 12.3 54 5.5 SW 28 41 15 22 1008.3 1008.3 0.0
17/04:30pm 22.8 19.0 12.4 52 5.9 SW 24 39 13 21 1007.8 1007.8 0.0
17/04:00pm 24.0 20.3 12.6 49 6.6 SSW 24 41 13 22 1007.3 1007.3 0.0
17/03:30pm 24.5 20.8 14.9 55 5.7 SW 28 35 15 19 1006.8 1006.8 0.0
17/03:00pm 23.9 19.9 14.0 54 5.8 SSW 28 41 15 22 1007.0 1007.0 0.0
17/02:30pm 23.9 18.9 15.1 58 5.3 SW 35 52 19 28 1007.0 1007.0 0.0
17/02:23pm 23.4 17.8 14.4 57 5.3 SW 37 52 20 28 1006.9 1006.9 0.0
17/02:12pm 23.3 19.5 14.6 58 5.1 SSW 28 46 15 25 1006.7 1006.7 0.0
17/02:00pm 23.5 19.6 14.5 57 5.3 SW 28 39 15 21 1006.6 1006.6 0.0
17/01:30pm 23.7 19.5 14.7 57 5.3 WSW 30 37 16 20 1006.2 1006.2 0.0
17/01:00pm 23.6 18.9 14.3 56 5.5 SW 32 44 17 24 1006.4 1006.4 0.0
17/12:44pm 23.5 19.0 13.9 55 5.6 SW 30 48 16 26 1006.4 1006.4 0.0
17/12:30pm 23.7 19.5 14.7 57 5.3 SW 30 43 16 23 1006.5 1006.5 0.0
17/12:29pm 23.7 19.8 14.4 56 5.5 SW 28 43 15 23 1006.5 1006.5 0.0
17/12:00pm 24.0 22.0 16.5 63 4.6 WSW 22 37 12 20 1006.3 1006.3 0.0
17/11:30am 23.1 20.3 15.4 62 4.6 SW 24 37 13 20 1006.1 1006.1 0.0
17/11:00am 23.1 20.4 15.7 63 4.5 WSW 24 33 13 18 1006.2 1006.2 0.0
17/10:30am 21.8 19.4 14.4 63 4.3 WSW 20 30 11 16 1006.4 1006.4 0.0
17/10:00am 21.5 20.1 15.6 69 3.5 WSW 17 24 9 13 1006.5 1006.5 0.0
17/09:30am 19.2 17.9 14.9 76 2.5 W 15 24 8 13 1006.7 1006.7 0.0
17/09:00am 18.2 16.4 14.5 79 2.1 W 17 22 9 12 1006.6 1006.6 22.4
17/08:50am 18.5 16.4 15.2 81 1.9 W 20 30 11 16 1006.8 1006.8 22.4
17/08:30am 17.5 15.3 14.4 82 1.8 WNW 19 24 10 13 1006.7 1006.7 22.4
17/08:00am 16.8 15.7 14.4 86 1.4 WNW 13 20 7 11 1006.4 1006.4 22.4
17/07:30am 16.4 15.0 14.4 88 1.1 WNW 15 19 8 10 1006.0 1006.0 22.4
17/07:00am 16.0 14.9 14.2 89 1.0 WNW 13 17 7 9 1005.6 1005.6 22.4
17/06:30am 16.0 15.7 14.4 90 0.9 NW 9 13 5 7 1005.4 1005.4 22.4
17/06:00am 15.5 14.7 13.9 90 0.9 WNW 11 15 6 8 1005.2 1005.2 22.4
17/05:59am 15.5 14.3 13.9 90 0.9 WNW 13 17 7 9 1005.2 1005.2 22.4
17/05:30am 15.2 14.3 13.6 90 0.9 WNW 11 13 6 7 1004.9 1004.9 22.4
17/05:00am 15.1 14.1 13.5 90 0.9 WNW 11 13 6 7 1004.9 1004.9 22.4
17/04:30am 14.8 13.3 13.2 90 0.9 WSW 13 19 7 10 1004.6 1004.6 22.4
17/04:00am 15.2 13.0 13.2 88 1.1 W 17 22 9 12 1004.6 1004.6 22.4
17/03:30am 15.2 13.0 13.4 89 1.0 WNW 17 20 9 11 1004.4 1004.4 22.4
17/03:00am 15.3 13.6 13.7 90 0.9 WNW 15 17 8 9 1004.6 1004.6 22.4
17/02:30am 15.3 13.3 13.8 91 0.8 W 17 20 9 11 1005.0 1005.0 22.4
17/02:00am 15.2 13.1 13.7 91 0.8 WNW 17 19 9 10 1005.0 1005.0 22.4
17/01:30am 15.0 14.0 13.5 91 0.8 WNW 11 13 6 7 1004.9 1004.9 22.4
17/01:00am 15.2 14.0 13.9 92 0.7 W 13 20 7 11 1004.7 1004.7 22.4
17/12:30am 15.5 13.6 14.2 92 0.7 WNW 17 20 9 11 1004.7 1004.7 22.4
17/12:00am 15.7 13.9 14.4 92 0.7 WNW 17 22 9 12 1004.7 1004.7 22.4
 
Date/Time
EDT
Temp
°C
App
Temp
°C
Dew
Point
°C
Rel
Hum
%
Delta-T
°C
Wind Press
QNH
hPa
Press
MSL
hPa
Rain since
9am
mm
Dir  Spd
km/h
Gust
km/h
Spd
kts
Gust
kts
16/11:30pm 15.4 14.2 13.9 91 0.8 W 13 15 7 8 1004.7 1004.7 22.4
16/11:00pm 15.9 14.7 13.9 88 1.1 WNW 13 13 7 7 1004.9 1004.9 22.4
16/10:30pm 17.3 15.9 14.6 84 1.6 WNW 15 17 8 9 1004.9 1004.9 22.4
16/10:00pm 17.7 16.9 15.0 84 1.6 WNW 13 17 7 9 1004.9 1004.9 22.4
16/09:30pm 17.7 17.2 15.0 84 1.6 WNW 11 13 6 7 1004.8 1004.8 22.4
16/09:00pm 17.9 18.3 15.2 84 1.6 WSW 7 9 4 5 1004.7 1004.7 22.4
16/08:30pm 18.4 18.2 14.7 79 2.1 WSW 9 11 5 6 1004.3 1004.3 22.4
16/08:00pm 19.1 18.1 14.6 75 2.6 WNW 13 15 7 8 1004.1 1004.1 22.4
16/07:30pm 18.9 17.8 14.4 75 2.6 WNW 13 17 7 9 1003.8 1003.8 22.4
16/07:00pm 18.9 17.2 14.8 77 2.4 W 17 22 9 12 1003.7 1003.7 22.4
16/06:30pm 18.8 17.3 14.3 75 2.6 WNW 15 20 8 11 1003.5 1003.5 22.4
16/06:00pm 19.1 16.8 14.1 73 2.9 WNW 19 24 10 13 1003.3 1003.3 22.4
16/05:30pm 19.3 16.8 14.1 72 3.0 WNW 20 28 11 15 1003.4 1003.4 22.4
16/05:00pm 19.6 17.2 14.4 72 3.0 NW 20 28 11 15 1003.6 1003.6 22.4
16/04:30pm 20.4 16.4 14.1 67 3.6 NW 28 37 15 20 1003.8 1003.8 22.4
16/04:00pm 20.2 17.2 14.8 71 3.2 NW 24 32 13 17 1004.0 1004.0 22.4
16/03:30pm 19.8 17.3 15.2 75 2.7 NNW 22 28 12 15 1004.0 1004.0 22.4
16/03:00pm 20.7 20.0 15.3 71 3.2 NNE 13 19 7 10 1003.4 1003.4 22.4
16/02:30pm 20.2 20.0 15.6 75 2.7 NE 11 15 6 8 1003.2 1003.2 22.4
16/02:00pm 19.4 17.8 15.9 80 2.1 NE 19 22 10 12 1003.5 1003.5 22.2
16/01:30pm 19.4 19.2 16.8 85 1.6 NE 13 19 7 10 1003.7 1003.7 22.2
16/01:00pm 17.7 17.7 15.3 86 1.4 ESE 9 11 5 6 1003.9 1003.9 22.2
16/12:30pm 16.9 17.3 15.4 91 0.9 ESE 7 13 4 7 1004.1 1004.1 22.2
16/12:00pm 16.1 15.6 15.0 93 0.6 S 11 17 6 9 1004.2 1004.2 22.2
16/11:30am 15.4 13.2 14.4 94 0.6 WSW 19 24 10 13 1004.8 1004.8 21.6
16/11:17am 15.5 13.1 14.5 94 0.6 NNW 20 28 11 15 1005.6 1005.6 21.2
16/11:00am 15.2 13.4 14.4 95 0.5 NW 17 28 9 15 1005.8 1005.8 20.4
16/10:52am 15.3 13.1 14.5 95 0.5 NNW 19 30 10 16 1006.0 1006.0 19.0
16/10:37am 15.8 13.6 14.8 94 0.6 N 20 35 11 19 1005.7 1005.7 15.2
16/10:36am 15.8 13.6 14.8 94 0.6 N 20 37 11 20 1005.7 1005.7 15.2
16/10:30am 15.9 13.7 14.8 93 0.6 NNE 20 37 11 20 1005.7 1005.7 14.8
16/10:00am 17.5 18.1 16.7 95 0.5 ENE 9 30 5 16 1004.9 1004.9 8.6
16/09:54am 17.8 18.5 17.0 95 0.5 NE 9 11 5 6 1004.8 1004.8 6.8
16/09:30am 18.0 20.1 17.2 95 0.5 ENE 2 9 1 5 1005.0 1005.0 6.6
16/09:00am 18.2 18.9 17.0 93 0.7 NNE 9 11 5 6 1005.3 1005.3 8.4
16/08:51am 18.5 19.7 17.3 93 0.7 N 7 11 4 6 1005.2 1005.2 7.8
16/08:33am 18.9 19.9 17.7 93 0.7 SSE 9 13 5 7 1005.3 1005.3 7.6
16/08:30am 18.9 19.9 17.7 93 0.7 SSE 9 13 5 7 1005.3 1005.3 7.6
16/08:00am 18.4 19.4 17.8 96 0.4 SE 9 15 5 8 1005.4 1005.4 7.6
16/07:30am 18.0 18.1 17.5 97 0.3 SE 13 17 7 9 1005.5 1005.5 7.6
16/07:00am 18.0 18.2 17.7 98 0.2 SE 13 17 7 9 1005.7 1005.7 7.6
16/06:37am 17.3 17.2 17.0 98 0.2 SE 13 19 7 10 1006.0 1006.0 7.6
16/06:30am 17.3 17.2 17.0 98 0.2 ESE 13 19 7 10 1006.1 1006.1 7.6
16/06:01am 17.2 17.8 16.7 97 0.3 ESE 9 13 5 7 1006.1 1006.1 7.6
16/06:00am 17.1 17.6 16.6 97 0.3 ESE 9 13 5 7 1006.0 1006.0 7.6
16/05:56am 17.1 17.6 16.6 97 0.3 E 9 15 5 8 1006.1 1006.1 7.6
16/05:30am 17.2 16.6 16.7 97 0.3 ESE 15 20 8 11 1005.6 1005.6 7.2
16/05:21am 17.2 16.2 16.7 97 0.3 ESE 17 20 9 11 1005.6 1005.6 7.2
16/05:01am 17.1 16.4 16.5 96 0.4 ESE 15 22 8 12 1005.5 1005.5 7.2
16/05:00am 17.1 16.4 16.5 96 0.4 ESE 15 22 8 12 1005.5 1005.5 7.2
16/04:59am 17.1 16.1 16.5 96 0.4 ESE 17 22 9 12 1005.5 1005.5 7.2
16/04:30am 17.3 17.1 16.7 96 0.4 ESE 13 20 7 11 1005.8 1005.8 6.4
16/04:00am 17.3 16.3 16.7 96 0.4 SE 17 24 9 13 1005.6 1005.6 5.8
16/03:39am 17.3 15.9 16.5 95 0.5 ESE 19 28 10 15 1005.6 1005.6 5.4
16/03:30am 17.2 15.7 16.4 95 0.5 E 19 28 10 15 1005.7 1005.7 5.4
16/03:06am 17.5 14.8 16.7 95 0.5 E 26 41 14 22 1005.4 1005.4 5.4
16/03:03am 17.5 14.8 16.7 95 0.5 E 26 37 14 20 1005.5 1005.5 5.4
16/03:00am 17.5 15.2 16.7 95 0.5 E 24 37 13 20 1005.4 1005.4 5.4
16/02:30am 17.7 16.3 16.9 95 0.5 E 20 30 11 16 1006.0 1006.0 5.4
16/02:19am 17.8 16.0 17.0 95 0.5 E 22 35 12 19 1005.9 1005.9 5.4
16/02:05am 17.9 14.9 16.9 94 0.6 ESE 28 43 15 23 1005.9 1005.9 5.4
16/02:00am 18.0 15.1 17.0 94 0.6 ESE 28 43 15 23 1005.8 1005.8 5.4
16/01:31am 18.1 14.9 17.3 95 0.5 ESE 30 48 16 26 1006.0 1006.0 5.4
16/01:30am 18.1 14.5 17.3 95 0.5 ESE 32 48 17 26 1006.0 1006.0 5.4
16/01:26am 18.1 14.5 17.3 95 0.5 ESE 32 48 17 26 1006.0 1006.0 5.4
16/01:01am 18.0 15.2 17.4 96 0.4 ESE 28 43 15 23 1005.8 1005.8 5.4
16/01:00am 18.0 15.2 17.4 96 0.4 ESE 28 43 15 23 1005.8 1005.8 5.4
16/12:30am 18.1 15.8 17.5 96 0.4 E 26 37 14 20 1006.2 1006.2 5.4
16/12:00am 18.1 15.8 17.6 97 0.3 E 26 41 14 22 1006.3 1006.3 5.4
 
Date/Time
EDT
Temp
°C
App
Temp
°C
Dew
Point
°C
Rel
Hum
%
Delta-T
°C
Wind Press
QNH
hPa
Press
MSL
hPa
Rain since
9am
mm
Dir  Spd
km/h
Gust
km/h
Spd
kts
Gust
kts
15/11:41pm 18.1 16.2 17.6 97 0.3 E 24 35 13 19 1006.4 1006.4 5.4
15/11:30pm 18.0 16.0 17.5 97 0.3 E 24 37 13 20 1006.4 1006.4 5.4
15/11:21pm 18.1 15.8 17.6 97 0.3 E 26 37 14 20 1006.2 1006.2 5.4
15/11:03pm 18.2 15.6 17.7 97 0.3 E 28 46 15 25 1006.6 1006.6 5.4
15/11:00pm 18.1 15.8 17.6 97 0.3 E 26 44 14 24 1006.6 1006.6 5.4
15/10:56pm 18.1 15.8 17.6 97 0.3 E 26 41 14 22 1006.6 1006.6 5.4
15/10:45pm 18.1 15.4 17.6 97 0.3 E 28 41 15 22 1006.7 1006.7 5.0
15/10:30pm 18.1 15.4 17.6 97 0.3 ESE 28 43 15 23 1007.1 1007.1 5.0
15/10:20pm 18.1 14.7 17.8 98 0.2 ESE 32 50 17 27 1007.3 1007.3 5.0
15/10:15pm 18.0 14.6 17.7 98 0.2 ESE 32 50 17 27 1007.4 1007.4 5.0
15/10:00pm 17.8 14.2 17.3 97 0.3 ESE 32 44 17 24 1007.3 1007.3 5.0
15/09:30pm 17.6 13.7 17.0 96 0.4 ESE 33 46 18 25 1007.1 1007.1 4.6
15/09:15pm 17.8 15.0 17.2 96 0.4 ESE 28 46 15 25 1007.1 1007.1 4.6
15/09:00pm 17.8 16.0 17.0 95 0.5 E 22 35 12 19 1007.1 1007.1 4.2
15/08:40pm 17.8 16.3 16.7 93 0.7 E 20 33 11 18 1007.2 1007.2 2.8
15/08:30pm 18.1 15.2 17.0 93 0.7 ESE 28 37 15 20 1007.1 1007.1 2.2
15/08:22pm 18.0 15.0 16.7 92 0.8 ESE 28 37 15 20 1007.0 1007.0 2.2
15/08:00pm 18.1 15.3 16.4 90 1.0 ESE 26 44 14 24 1006.7 1006.7 1.6
15/07:30pm 18.4 15.5 16.0 86 1.4 E 26 39 14 21 1007.0 1007.0 1.6
15/07:16pm 18.9 15.6 16.1 84 1.7 ESE 28 46 15 25 1006.9 1006.9 1.6
15/07:00pm 18.8 14.5 16.0 84 1.7 ESE 33 48 18 26 1006.7 1006.7 1.6
15/06:58pm 18.9 14.6 16.0 83 1.7 ESE 33 52 18 28 1006.7 1006.7 1.6
15/06:30pm 18.7 13.7 16.1 85 1.5 ESE 37 52 20 28 1006.9 1006.9 1.6
15/06:00pm 19.0 15.4 16.2 84 1.7 E 30 43 16 23 1007.3 1007.3 1.6
15/05:30pm 18.9 15.7 16.3 85 1.6 ESE 28 39 15 21 1007.6 1007.6 1.6
15/05:00pm 19.4 17.5 16.8 85 1.6 ESE 22 33 12 18 1008.0 1008.0 1.6
15/04:30pm 19.0 16.8 16.8 87 1.3 E 24 39 13 21 1008.1 1008.1 1.6
15/04:29pm 19.1 16.9 16.9 87 1.3 E 24 39 13 21 1008.1 1008.1 1.6
15/04:08pm 19.6 17.0 17.7 89 1.2 ESE 28 46 15 25 1007.6 1007.6 1.6
15/04:00pm 18.9 16.1 17.2 90 1.0 ESE 28 39 15 21 1007.2 1007.2 1.6
15/03:33pm 18.7 15.0 17.4 92 0.8 ESE 33 44 18 24 1007.4 1007.4 1.6
15/03:30pm 18.4 14.8 17.1 92 0.8 ESE 32 44 17 24 1007.5 1007.5 1.6
15/03:00pm 18.1 16.2 16.6 91 0.9 ESE 22 35 12 19 1008.3 1008.3 1.4
15/02:55pm 18.4 16.1 16.7 90 1.0 ESE 24 37 13 20 1008.2 1008.2 1.0
15/02:39pm 18.4 16.2 16.9 91 0.9 ESE 24 35 13 19 1008.1 1008.1 1.0
15/02:30pm 18.4 16.2 16.9 91 0.9 ESE 24 32 13 17 1008.2 1008.2 1.0
15/02:29pm 18.4 16.2 16.9 91 0.9 ESE 24 32 13 17 1008.2 1008.2 1.0
15/02:20pm 18.4 16.1 16.7 90 1.0 ESE 24 35 13 19 1008.4 1008.4 1.0
15/02:05pm 18.4 15.7 16.6 89 1.1 ESE 26 41 14 22 1008.8 1008.8 1.0
15/02:00pm 18.4 15.7 16.6 89 1.1 ESE 26 41 14 22 1008.9 1008.9 1.0
15/01:59pm 18.4 15.3 16.6 89 1.1 ESE 28 41 15 22 1008.9 1008.9 1.0
15/01:47pm 18.4 14.9 16.4 88 1.2 ESE 30 41 16 22 1008.8 1008.8 1.0
15/01:34pm 18.5 15.8 16.5 88 1.2 ESE 26 37 14 20 1009.0 1009.0 1.0
15/01:30pm 18.3 15.9 16.3 88 1.2 ESE 24 37 13 20 1009.3 1009.3 1.0
15/01:22pm 18.4 15.2 16.4 88 1.2 ESE 28 43 15 23 1009.2 1009.2 1.0
15/01:04pm 18.4 14.8 16.2 87 1.3 ESE 30 44 16 24 1009.2 1009.2 1.0
15/01:00pm 18.4 14.5 15.6 84 1.7 ESE 30 44 16 24 1009.1 1009.1 1.0
15/12:30pm 19.6 15.7 15.5 77 2.4 ESE 30 46 16 25 1009.2 1009.2 1.0
15/12:00pm 19.8 15.2 15.2 75 2.7 ESE 33 54 18 29 1009.1 1009.1 1.0
15/11:30am 19.7 14.4 15.4 76 2.5 ESE 37 57 20 31 1009.3 1009.3 1.0
15/11:14am 19.2 15.0 14.7 75 2.6 ESE 30 48 16 26 1009.9 1009.9 1.0
15/11:00am 19.3 14.7 14.6 74 2.7 ESE 32 48 17 26 1009.9 1009.9 1.0
15/10:30am 19.1 15.1 15.2 78 2.3 ESE 30 43 16 23 1010.1 1010.1 1.0
15/10:00am 18.2 15.1 15.5 84 1.6 SE 26 39 14 21 1010.1 1010.1 1.0
15/09:30am 17.8 13.7 14.9 83 1.7 SE 30 46 16 25 1010.3 1010.3 0.4
15/09:00am 17.9 13.1 14.6 81 1.9 ESE 33 46 18 25 1010.7 1010.7 1.0
15/08:30am 18.6 13.8 14.1 75 2.6 ESE 32 46 17 25 1010.6 1010.6 1.0
15/08:00am 18.1 13.2 14.2 78 2.2 ESE 33 52 18 28 1010.9 1010.9 1.0
15/07:30am 17.7 14.2 14.4 81 1.9 ESE 26 35 14 19 1011.2 1011.2 1.0
15/07:00am 17.0 14.3 14.5 85 1.4 ESE 22 28 12 15 1011.2 1011.2 1.0
15/06:30am 17.3 13.3 14.2 82 1.8 ESE 28 41 15 22 1011.0 1011.0 0.4
15/06:00am 18.9 14.6 13.1 69 3.3 ESE 28 44 15 24 1010.8 1010.8 0.2
15/05:30am 18.7 15.1 13.1 70 3.2 ESE 24 35 13 19 1010.9 1010.9 0.2
15/05:00am 18.1 15.1 13.6 75 2.6 ESE 22 32 12 17 1011.0 1011.0 0.2
15/04:30am 18.5 14.9 13.1 71 3.0 ESE 24 32 13 17 1011.0 1011.0 0.2
15/04:00am 18.6 15.8 13.2 71 3.1 ESE 20 30 11 16 1010.9 1010.9 0.2
15/03:30am 18.7 15.5 13.1 70 3.2 ESE 22 35 12 19 1011.0 1011.0 0.2
15/03:00am 18.8 15.6 13.2 70 3.2 ESE 22 32 12 17 1011.4 1011.4 0.2
15/02:30am 18.7 14.8 13.3 71 3.1 ESE 26 35 14 19 1012.0 1012.0 0.2
15/02:00am 18.7 14.4 13.3 71 3.1 ESE 28 43 15 23 1012.2 1012.2 0.2
15/01:30am 18.8 15.3 13.4 71 3.1 ESE 24 33 13 18 1012.5 1012.5 0.2
15/01:00am 18.9 15.4 13.3 70 3.2 ESE 24 35 13 19 1012.5 1012.5 0.2
15/12:30am 18.9 14.6 13.3 70 3.2 ESE 28 37 15 20 1012.7 1012.7 0.2
15/12:00am 18.8 16.1 13.6 72 3.0 ESE 20 30 11 16 1012.9 1012.9 0.2
 
Date/Time
EDT
Temp
°C
App
Temp
°C
Dew
Point
°C
Rel
Hum
%
Delta-T
°C
Wind Press
QNH
hPa
Press
MSL
hPa
Rain since
9am
mm
Dir  Spd
km/h
Gust
km/h
Spd
kts
Gust
kts
14/11:30pm 19.0 16.3 13.4 70 3.2 ESE 20 30 11 16 1012.7 1012.7 0.2
14/11:00pm 19.1 15.6 13.5 70 3.2 ESE 24 35 13 19 1012.8 1012.8 0.2
14/10:30pm 19.1 15.3 13.5 70 3.2 ESE 26 37 14 20 1012.9 1012.9 0.2
14/10:00pm 19.5 15.3 13.4 68 3.5 ESE 28 37 15 20 1012.9 1012.9 0.2
14/09:30pm 19.6 16.9 13.5 68 3.5 ESE 20 30 11 16 1012.8 1012.8 0.2
14/09:00pm 18.7 17.0 14.8 78 2.3 E 17 26 9 14 1012.6 1012.6 0.2

Other Formats:

Comma delimited format used in spreadsheet applications
http://www.bom.gov.au/fwo/IDT60801/IDT60801.95957.axf

JavaScript Object Notation format (JSON) in row-major order
http://www.bom.gov.au/fwo/IDT60801/IDT60801.95957.json